Time;durP1;ratioP1;P1;durP2;ratioP2;P2;SDS_P1;SDS_P2;PMS_P1;PMS_P2;Temp;Humidity;BMP_temperature;BMP_pressure;BME280_temperature;BME280_humidity;BME280_pressure;Samples;Min_cycle;Max_cycle;Signal;HPM_P1;HPM_P2
2022/10/25 00:01:22;;;;;;;95.88;41.00;;;22.80;67.60;;;;;;5074488;28;20371;-82
2022/10/25 00:03:48;;;;;;;87.30;37.58;;;22.90;67.20;;;;;;5074138;28;20024;-83
2022/10/25 00:06:14;;;;;;;75.18;35.95;;;23.10;66.70;;;;;;5094089;28;20101;-82
2022/10/25 00:08:40;;;;;;;75.25;35.22;;;23.10;66.40;;;;;;5090723;28;20455;-82
2022/10/25 00:11:07;;;;;;;102.97;39.63;;;22.70;67.40;;;;;;5091523;28;20008;-82
2022/10/25 00:13:33;;;;;;;71.65;34.55;;;22.60;68.20;;;;;;5083537;28;20032;-82
2022/10/25 00:15:58;;;;;;;66.20;34.63;;;22.70;67.40;;;;;;5091484;28;20020;-82
2022/10/25 00:18:24;;;;;;;111.25;40.30;;;22.60;68.00;;;;;;5099632;28;20031;-81
2022/10/25 00:20:50;;;;;;;101.72;40.28;;;22.50;68.60;;;;;;5081396;28;20071;-81
2022/10/25 00:23:15;;;;;;;76.25;33.83;;;22.80;67.60;;;;;;5078886;28;20085;-81
2022/10/25 00:25:41;;;;;;;93.30;39.88;;;22.90;67.00;;;;;;5090033;28;20020;-83
2022/10/25 00:28:07;;;;;;;86.93;37.90;;;22.90;67.10;;;;;;5079364;28;20021;-83
2022/10/25 00:30:33;;;;;;;101.00;42.38;;;23.00;66.80;;;;;;5072749;28;20032;-81
2022/10/25 00:32:58;;;;;;;82.13;37.53;;;22.90;66.70;;;;;;5089093;28;20031;-82
2022/10/25 00:35:24;;;;;;;100.55;39.67;;;23.00;66.50;;;;;;5079083;28;20015;-81
2022/10/25 00:37:50;;;;;;;102.38;39.45;;;23.00;66.60;;;;;;5080180;28;20021;-81
2022/10/25 00:40:16;;;;;;;91.93;38.42;;;23.00;67.00;;;;;;5089856;28;20031;-82
2022/10/25 00:42:42;;;;;;;75.97;34.38;;;23.00;66.60;;;;;;5089831;28;20036;-84
2022/10/25 00:45:24;;;;;;;72.45;34.00;;;23.00;66.60;;;;;;5092715;28;20024;-81
2022/10/25 00:48:03;;;;;;;72.25;34.42;;;22.90;67.30;;;;;;5091003;28;20055;-81
2022/10/25 00:50:47;;;;;;;87.13;36.17;;;22.80;67.20;;;;;;5073747;28;20017;-82
2022/10/25 00:53:35;;;;;;;63.72;30.52;;;22.60;68.40;;;;;;5101470;28;20020;-82
2022/10/25 00:56:28;;;;;;;61.13;30.00;;;22.40;68.10;;;;;;5072578;28;20027;-84
2022/10/25 00:58:57;;;;;;;83.05;34.78;;;22.20;69.00;;;;;;5078154;28;20032;-80
2022/10/25 01:01:23;;;;;;;76.45;35.72;;;22.10;69.80;;;;;;5105505;28;20062;-84
2022/10/25 01:03:53;;;;;;;76.03;33.63;;;22.30;69.30;;;;;;5090364;28;20483;-80
2022/10/25 01:06:36;;;;;;;59.58;29.95;;;22.40;68.90;;;;;;5105919;28;20023;-80
2022/10/25 01:09:02;;;;;;;87.63;35.15;;;22.50;68.50;;;;;;5073277;28;20025;-80
2022/10/25 01:11:28;;;;;;;71.10;32.58;;;22.40;69.20;;;;;;5073023;28;20025;-84
2022/10/25 01:13:55;;;;;;;72.47;32.92;;;22.40;69.00;;;;;;5074146;28;20028;-81
2022/10/25 01:16:58;;;;;;;83.88;33.92;;;22.50;68.60;;;;;;5075515;28;20012;-79
2022/10/25 01:19:50;;;;;;;77.57;33.55;;;22.20;69.20;;;;;;5078487;28;20065;-81
2022/10/25 01:22:26;;;;;;;63.35;30.15;;;22.00;69.60;;;;;;5093345;28;20040;-85
2022/10/25 01:25:13;;;;;;;59.55;29.30;;;22.10;69.70;;;;;;5090094;28;20029;-83
2022/10/25 01:27:41;;;;;;;65.85;29.63;;;22.10;69.60;;;;;;5076721;28;20458;-80
2022/10/25 01:30:16;;;;;;;51.85;26.95;;;22.00;70.10;;;;;;5089735;28;20462;-83
2022/10/25 01:33:09;;;;;;;64.53;29.67;;;21.90;70.40;;;;;;5072217;28;20020;-80
2022/10/25 01:35:45;;;;;;;50.10;26.60;;;22.00;70.00;;;;;;5082119;28;20115;-82
2022/10/25 01:38:33;;;;;;;49.35;25.02;;;21.90;70.60;;;;;;5077977;28;20021;-80
2022/10/25 01:41:31;;;;;;;63.22;27.38;;;21.70;71.30;;;;;;4992989;28;20068;-80
2022/10/25 01:43:59;;;;;;;65.30;27.05;;;21.90;70.90;;;;;;5011078;28;20104;-82
2022/10/25 01:46:45;;;;;;;50.38;23.30;;;22.10;69.60;;;;;;4994871;28;20026;-82
2022/10/25 01:49:23;;;;;;;44.53;22.05;;;22.30;69.30;;;;;;5010837;28;20030;-89
2022/10/25 01:51:49;;;;;;;44.78;21.42;;;22.10;69.70;;;;;;4994295;28;20465;-81
2022/10/25 01:54:21;;;;;;;29.60;15.68;;;22.30;70.10;;;;;;5011676;28;20091;-83
2022/10/25 01:57:23;;;;;;;31.17;13.98;;;21.90;70.00;;;;;;5011527;28;20018;-81
2022/10/25 02:00:12;;;;;;;23.40;13.43;;;21.70;71.50;;;;;;5011799;28;20034;-81
2022/10/25 02:03:05;;;;;;;19.75;11.73;;;21.80;70.80;;;;;;5014328;28;20037;-83
2022/10/25 02:06:00;;;;;;;22.55;13.00;;;21.80;71.90;;;;;;4999961;28;20033;-86
2022/10/25 02:08:58;;;;;;;18.67;10.68;;;21.60;72.50;;;;;;4998722;28;20034;-80
2022/10/25 02:11:26;;;;;;;22.15;12.70;;;21.80;71.30;;;;;;5014945;28;20021;-80
2022/10/25 02:14:03;;;;;;;23.45;13.80;;;22.10;70.20;;;;;;4998284;28;20472;-81
2022/10/25 02:16:36;;;;;;;27.00;14.50;;;22.20;70.30;;;;;;5014217;28;20029;-82
2022/10/25 02:19:04;;;;;;;24.20;13.15;;;22.40;69.90;;;;;;5088262;28;20055;-82
2022/10/25 02:21:33;;;;;;;23.83;13.27;;;22.50;69.30;;;;;;5092323;28;20429;-89
2022/10/25 02:24:04;;;;;;;22.33;12.65;;;22.50;68.70;;;;;;5092322;28;20098;-83
2022/10/25 02:26:31;;;;;;;23.52;14.00;;;22.40;69.10;;;;;;5088816;28;20012;-80
2022/10/25 02:28:56;;;;;;;23.05;13.63;;;22.00;70.60;;;;;;5091906;28;20366;-80
2022/10/25 02:31:27;;;;;;;24.40;14.60;;;21.90;70.70;;;;;;5077960;28;20467;-83
2022/10/25 02:33:52;;;;;;;24.25;13.48;;;21.70;71.40;;;;;;5090610;28;20017;-81
2022/10/25 02:36:21;;;;;;;26.27;14.00;;;21.70;71.10;;;;;;5091591;28;20132;-80
2022/10/25 02:38:48;;;;;;;24.05;13.73;;;21.80;70.80;;;;;;5091788;28;20467;-81
2022/10/25 02:41:14;;;;;;;19.70;11.32;;;21.80;71.10;;;;;;5089435;28;20016;-83
2022/10/25 02:43:40;;;;;;;16.85;11.00;;;22.00;70.50;;;;;;5092823;28;20028;-84
2022/10/25 02:46:08;;;;;;;20.52;12.05;;;22.00;70.50;;;;;;5092042;28;20024;-91
2022/10/25 02:48:35;;;;;;;17.13;9.68;;;22.10;70.80;;;;;;5076213;28;20070;-82
2022/10/25 02:51:01;;;;;;;13.95;8.93;;;22.10;70.30;;;;;;5092497;28;20013;-80
2022/10/25 02:53:27;;;;;;;14.57;9.35;;;22.10;70.80;;;;;;5096184;28;20032;-79
2022/10/25 02:56:18;;;;;;;15.27;9.25;;;21.90;70.60;;;;;;5096883;28;20095;-84
2022/10/25 02:58:45;;;;;;;14.60;8.95;;;21.90;70.80;;;;;;5077114;28;20020;-82
2022/10/25 03:01:14;;;;;;;17.48;9.63;;;21.90;71.30;;;;;;5075238;28;20516;-87
2022/10/25 03:03:44;;;;;;;16.52;10.32;;;21.70;71.70;;;;;;5076766;28;20360;-83
2022/10/25 03:06:10;;;;;;;18.13;10.68;;;21.50;72.50;;;;;;5076395;28;20474;-80
2022/10/25 03:08:37;;;;;;;17.65;10.82;;;21.70;71.90;;;;;;5076330;28;20039;-85
2022/10/25 03:11:05;;;;;;;19.15;10.85;;;21.60;71.90;;;;;;5082964;28;20056;-84
2022/10/25 03:13:31;;;;;;;19.48;11.48;;;21.60;72.90;;;;;;5075623;28;20516;-82
2022/10/25 03:15:57;;;;;;;21.60;12.18;;;21.40;73.60;;;;;;5076092;28;20020;-80
2022/10/25 03:18:23;;;;;;;21.42;12.38;;;21.50;73.00;;;;;;5074751;28;20024;-87
2022/10/25 03:21:06;;;;;;;18.40;11.88;;;21.20;73.90;;;;;;5087134;28;20044;-84
2022/10/25 03:23:38;;;;;;;23.95;13.40;;;21.10;73.80;;;;;;5076094;28;20036;-88
2022/10/25 03:26:04;;;;;;;23.48;14.50;;;21.00;74.40;;;;;;5091538;28;20024;-78
2022/10/25 03:28:30;;;;;;;25.00;14.38;;;21.30;73.70;;;;;;5078547;28;20484;-81
2022/10/25 03:30:57;;;;;;;25.85;15.38;;;21.10;74.30;;;;;;5087464;28;20129;-85
2022/10/25 03:33:24;;;;;;;26.85;14.90;;;21.30;73.40;;;;;;5082202;28;20020;-88
2022/10/25 03:35:54;;;;;;;26.73;15.13;;;21.40;73.10;;;;;;5098539;28;20024;-79
2022/10/25 03:38:20;;;;;;;25.98;15.60;;;21.30;74.00;;;;;;5091891;28;20028;-80
2022/10/25 03:40:46;;;;;;;30.15;17.17;;;21.30;74.30;;;;;;5076180;28;20021;-86
2022/10/25 03:43:11;;;;;;;24.75;15.77;;;21.30;73.80;;;;;;5102561;28;20074;-81
2022/10/25 03:45:37;;;;;;;29.13;16.65;;;21.50;73.70;;;;;;5077876;28;20024;-82
2022/10/25 03:48:03;;;;;;;27.88;16.80;;;21.60;73.20;;;;;;5086639;28;20031;-84
2022/10/25 03:50:29;;;;;;;32.60;17.75;;;21.60;72.90;;;;;;5107763;28;20012;-83
2022/10/25 03:52:54;;;;;;;32.45;17.85;;;21.60;73.10;;;;;;5104271;28;20032;-82
2022/10/25 03:55:20;;;;;;;38.28;19.73;;;21.70;73.70;;;;;;5111301;28;20016;-80
2022/10/25 03:57:46;;;;;;;35.40;18.73;;;21.60;72.30;;;;;;5095150;28;20111;-80
2022/10/25 04:00:12;;;;;;;33.75;18.42;;;21.50;73.80;;;;;;5095509;28;20027;-82
2022/10/25 04:02:38;;;;;;;36.28;19.13;;;21.60;73.10;;;;;;5095601;28;20032;-82
2022/10/25 04:05:04;;;;;;;30.75;17.60;;;21.50;73.30;;;;;;5089659;28;20375;-80
2022/10/25 04:07:30;;;;;;;34.70;19.30;;;21.60;72.80;;;;;;5077257;28;20375;-80
2022/10/25 04:09:56;;;;;;;34.47;18.67;;;21.60;73.10;;;;;;5090433;28;20473;-79
2022/10/25 04:12:21;;;;;;;39.10;20.30;;;21.70;72.90;;;;;;5092201;28;20103;-81
2022/10/25 04:14:47;;;;;;;33.65;18.70;;;21.80;72.10;;;;;;5088424;28;20040;-81
2022/10/25 04:17:13;;;;;;;40.17;20.45;;;21.80;72.20;;;;;;5101677;28;20111;-82
2022/10/25 04:19:38;;;;;;;34.25;19.13;;;22.00;71.20;;;;;;5092417;28;20034;-79
2022/10/25 04:22:04;;;;;;;35.33;19.05;;;22.10;71.00;;;;;;5085455;28;20045;-81
2022/10/25 04:24:30;;;;;;;32.78;17.50;;;22.10;71.30;;;;;;5085154;28;20028;-80
2022/10/25 04:26:55;;;;;;;37.58;19.55;;;22.20;70.40;;;;;;5090139;28;20044;-80
2022/10/25 04:29:22;;;;;;;34.22;18.95;;;22.10;71.10;;;;;;5084007;28;20455;-80
2022/10/25 04:31:47;;;;;;;39.38;20.35;;;22.20;70.90;;;;;;5093202;28;20103;-79
2022/10/25 04:34:16;;;;;;;31.85;18.45;;;22.20;71.10;;;;;;5085322;28;20024;-89
2022/10/25 04:36:41;;;;;;;33.10;18.58;;;22.10;70.40;;;;;;5095678;28;20024;-78
2022/10/25 04:39:07;;;;;;;33.85;18.30;;;21.90;71.30;;;;;;5090588;28;20069;-85
2022/10/25 04:41:33;;;;;;;35.20;19.17;;;21.60;72.30;;;;;;5081316;28;20021;-77
2022/10/25 04:43:58;;;;;;;37.38;20.40;;;21.40;73.10;;;;;;5094039;28;20025;-84
2022/10/25 04:46:33;;;;;;;36.50;19.33;;;21.50;72.20;;;;;;5072034;28;20020;-83
2022/10/25 04:48:58;;;;;;;34.47;19.30;;;21.60;72.50;;;;;;5074691;28;20047;-83
2022/10/25 04:51:34;;;;;;;38.58;20.02;;;21.60;72.40;;;;;;5076506;28;20017;-87
2022/10/25 04:54:00;;;;;;;33.70;18.23;;;21.50;72.10;;;;;;5059441;28;20525;-79
2022/10/25 04:56:27;;;;;;;35.22;19.17;;;21.50;72.40;;;;;;5072613;28;20012;-81
2022/10/25 04:58:53;;;;;;;33.22;19.85;;;21.60;71.90;;;;;;5079380;28;20044;-84
2022/10/25 05:01:19;;;;;;;38.53;19.70;;;21.60;71.40;;;;;;5070833;28;20489;-78
2022/10/25 05:03:45;;;;;;;31.85;19.27;;;21.30;72.80;;;;;;5091210;28;20036;-80
2022/10/25 05:06:10;;;;;;;31.13;18.05;;;21.40;72.60;;;;;;5073299;28;20031;-81
2022/10/25 05:08:39;;;;;;;31.77;19.23;;;21.60;71.50;;;;;;5053862;28;20064;-79
2022/10/25 05:11:05;;;;;;;32.17;17.90;;;21.50;71.30;;;;;;5072524;28;20039;-81
2022/10/25 05:13:35;;;;;;;32.67;18.40;;;21.60;71.80;;;;;;5062112;28;20344;-78
2022/10/25 05:16:01;;;;;;;28.70;17.38;;;21.70;71.50;;;;;;5071541;28;20174;-79
2022/10/25 05:18:27;;;;;;;33.53;18.00;;;21.90;71.10;;;;;;5074225;28;20060;-77
2022/10/25 05:21:03;;;;;;;31.58;17.73;;;22.00;70.70;;;;;;5079738;28;20115;-78
2022/10/25 05:23:30;;;;;;;31.88;17.17;;;22.00;70.10;;;;;;5090379;28;20063;-79
2022/10/25 05:26:01;;;;;;;27.20;16.67;;;21.90;70.80;;;;;;5091925;28;20088;-79
2022/10/25 05:28:26;;;;;;;;;;;21.90;70.40;;;;;;5092807;28;20020;-81
2022/10/25 05:30:52;;;;;;;27.77;15.90;;;21.90;70.10;;;;;;5094760;28;19911;-81
2022/10/25 05:33:19;;;;;;;31.77;19.80;;;22.00;69.80;;;;;;4463215;28;10001669;-82
2022/10/25 05:35:45;;;;;;;40.58;24.27;;;21.90;70.40;;;;;;5108880;28;20202;-78
2022/10/25 05:38:11;;;;;;;28.65;17.27;;;21.80;70.80;;;;;;5107635;28;20047;-78
2022/10/25 05:40:36;;;;;;;26.83;16.60;;;21.60;71.20;;;;;;5112483;28;20057;-78
2022/10/25 05:43:02;;;;;;;26.42;15.43;;;21.60;71.50;;;;;;5111207;28;20042;-86
2022/10/25 05:45:28;;;;;;;27.23;15.65;;;21.50;70.90;;;;;;5092292;28;20102;-84
2022/10/25 05:47:54;;;;;;;30.05;18.17;;;21.20;71.60;;;;;;5092261;28;20526;-79
2022/10/25 05:50:20;;;;;;;33.17;19.65;;;21.10;71.80;;;;;;5111840;28;20019;-82
2022/10/25 05:52:45;;;;;;;28.00;17.08;;;21.00;72.40;;;;;;5092748;28;20019;-80
2022/10/25 05:55:11;;;;;;;28.17;16.73;;;21.00;72.70;;;;;;5111069;28;20016;-79
2022/10/25 05:57:37;;;;;;;29.65;18.05;;;21.10;72.80;;;;;;5107524;28;20019;-78
2022/10/25 06:00:03;;;;;;;28.92;17.90;;;21.20;72.30;;;;;;5109989;28;20024;-78
2022/10/25 06:02:29;;;;;;;32.63;19.38;;;21.40;71.70;;;;;;5092513;28;20031;-79
2022/10/25 06:04:54;;;;;;;28.77;17.23;;;21.50;71.00;;;;;;5108842;28;20016;-78
2022/10/25 06:07:20;;;;;;;29.20;18.13;;;21.50;71.00;;;;;;5112150;28;20011;-78
2022/10/25 06:09:46;;;;;;;30.20;19.52;;;21.40;71.50;;;;;;5110850;28;20494;-83
2022/10/25 06:12:11;;;;;;;28.60;19.90;;;21.40;70.70;;;;;;5111823;28;20427;-82
2022/10/25 06:14:37;;;;;;;33.42;21.33;;;21.50;71.00;;;;;;5112701;28;20028;-79
2022/10/25 06:17:02;;;;;;;35.55;23.60;;;21.50;71.00;;;;;;5092934;28;20152;-84
2022/10/25 06:19:28;;;;;;;34.92;22.92;;;21.70;70.20;;;;;;5112081;28;20381;-79
2022/10/25 06:21:55;;;;;;;34.47;22.77;;;21.60;70.50;;;;;;5109915;28;20392;-78
2022/10/25 06:24:20;;;;;;;34.08;23.27;;;21.60;69.80;;;;;;5093265;28;20367;-79
2022/10/25 06:26:46;;;;;;;34.60;23.92;;;21.40;71.10;;;;;;5111736;28;20476;-77
2022/10/25 06:29:12;;;;;;;41.08;25.30;;;21.40;71.50;;;;;;5111769;28;20016;-78
2022/10/25 06:31:37;;;;;;;36.53;23.55;;;21.40;70.70;;;;;;5110598;28;20087;-78
2022/10/25 06:34:03;;;;;;;36.45;24.27;;;21.30;71.00;;;;;;5110823;28;20144;-79
2022/10/25 06:36:30;;;;;;;37.40;24.60;;;21.50;71.30;;;;;;5111548;28;20019;-79
2022/10/25 06:38:56;;;;;;;36.88;24.40;;;21.50;70.50;;;;;;5107649;28;20043;-80
2022/10/25 06:41:24;;;;;;;33.65;23.33;;;21.30;71.30;;;;;;5111976;28;20114;-78
2022/10/25 06:43:50;;;;;;;35.45;22.92;;;21.20;71.60;;;;;;5111804;28;20028;-78
2022/10/25 06:46:23;;;;;;;37.80;25.20;;;21.00;71.90;;;;;;5093476;28;20015;-86
2022/10/25 06:48:51;;;;;;;35.92;24.25;;;20.90;72.40;;;;;;5114329;28;20011;-78
2022/10/25 06:51:18;;;;;;;34.55;23.92;;;21.00;71.90;;;;;;5111893;28;20449;-79
2022/10/25 06:53:43;;;;;;;34.00;23.98;;;20.90;72.30;;;;;;5096683;28;20028;-80
2022/10/25 06:56:11;;;;;;;35.20;22.17;;;21.00;72.00;;;;;;5115257;28;20020;-80
2022/10/25 06:58:37;;;;;;;37.03;25.23;;;21.30;70.40;;;;;;5098280;28;20454;-79
2022/10/25 07:01:07;;;;;;;34.63;24.55;;;21.40;70.40;;;;;;5095451;28;20023;-80
2022/10/25 07:03:34;;;;;;;33.13;24.43;;;21.70;69.70;;;;;;5114883;28;20521;-80
2022/10/25 07:06:11;;;;;;;33.45;22.38;;;21.90;69.40;;;;;;5109399;28;20008;-79
2022/10/25 07:08:39;;;;;;;32.22;22.95;;;21.80;69.10;;;;;;5105778;28;20023;-79
2022/10/25 07:11:05;;;;;;;32.08;23.17;;;21.80;69.50;;;;;;5116452;28;20541;-79
2022/10/25 07:13:32;;;;;;;35.00;22.63;;;22.00;68.90;;;;;;5116445;28;20343;-79
2022/10/25 07:16:02;;;;;;;31.75;23.30;;;22.30;68.10;;;;;;5092823;28;20429;-80
2022/10/25 07:18:29;;;;;;;31.75;22.10;;;22.50;67.70;;;;;;5085825;28;20027;-80
2022/10/25 07:21:01;;;;;;;29.60;21.30;;;22.50;67.70;;;;;;5115711;28;20032;-84
2022/10/25 07:23:29;;;;;;;31.38;21.98;;;22.50;68.10;;;;;;5115921;28;20031;-80
2022/10/25 07:25:55;;;;;;;30.50;20.35;;;22.60;67.80;;;;;;5116448;28;20112;-80
2022/10/25 07:28:20;;;;;;;33.65;23.05;;;22.50;67.30;;;;;;5114973;28;20432;-82
2022/10/25 07:30:47;;;;;;;30.13;21.00;;;22.30;67.60;;;;;;5116200;28;20339;-79
2022/10/25 07:33:14;;;;;;;31.05;20.73;;;22.30;67.50;;;;;;5116109;28;20539;-84
2022/10/25 07:35:43;;;;;;;33.67;21.25;;;22.10;67.90;;;;;;5116135;28;20022;-85
2022/10/25 07:38:08;;;;;;;30.67;20.67;;;21.90;68.70;;;;;;4393330;28;10000703;-82
2022/10/25 07:40:34;;;;;;;29.85;20.45;;;21.90;69.00;;;;;;5115648;28;20038;-81
2022/10/25 07:43:00;;;;;;;28.08;19.67;;;21.80;69.10;;;;;;5096643;28;20031;-81
2022/10/25 07:45:25;;;;;;;29.23;19.27;;;21.90;68.20;;;;;;5113787;28;20018;-80
2022/10/25 07:47:51;;;;;;;27.38;19.45;;;22.00;68.70;;;;;;5095709;28;20019;-81
2022/10/25 07:50:20;;;;;;;33.50;20.58;;;21.90;68.50;;;;;;5113635;28;20016;-79
2022/10/25 07:52:46;;;;;;;28.88;18.95;;;21.80;69.00;;;;;;5113721;28;20366;-80
2022/10/25 07:55:13;;;;;;;29.20;18.90;;;21.70;69.60;;;;;;5114079;28;20019;-80
2022/10/25 07:57:39;;;;;;;30.15;19.38;;;21.70;69.30;;;;;;5095818;28;20023;-79
2022/10/25 08:00:06;;;;;;;25.33;18.33;;;21.90;69.00;;;;;;5096085;28;20019;-79
2022/10/25 08:02:32;;;;;;;25.85;17.90;;;22.10;68.70;;;;;;5115647;28;20016;-79
2022/10/25 08:04:58;;;;;;;25.05;17.25;;;22.10;68.10;;;;;;5097221;28;20019;-81
2022/10/25 08:07:24;;;;;;;27.80;18.52;;;21.90;68.80;;;;;;5097344;28;20015;-79
2022/10/25 08:09:50;;;;;;;26.65;17.92;;;22.00;68.10;;;;;;5114485;28;20085;-78
2022/10/25 08:12:15;;;;;;;26.75;18.23;;;22.10;68.30;;;;;;5097273;28;20373;-81
2022/10/25 08:14:41;;;;;;;26.85;17.42;;;22.20;67.90;;;;;;5114236;28;20457;-80
2022/10/25 08:17:07;;;;;;;25.38;17.58;;;22.40;67.30;;;;;;5114969;28;20015;-80
2022/10/25 08:19:32;;;;;;;23.98;15.95;;;22.40;67.00;;;;;;5115382;28;20015;-82
2022/10/25 08:21:58;;;;;;;26.05;17.17;;;22.50;66.70;;;;;;5085481;28;20091;-80
2022/10/25 08:24:24;;;;;;;25.10;17.13;;;22.50;67.20;;;;;;5074288;28;20178;-87
2022/10/25 08:26:50;;;;;;;34.22;22.42;;;22.40;66.90;;;;;;5094790;28;20076;-80
2022/10/25 08:29:16;;;;;;;25.08;17.40;;;22.30;67.50;;;;;;5093649;28;20024;-80
2022/10/25 08:31:42;;;;;;;28.33;19.75;;;22.30;66.90;;;;;;5094383;28;20020;-80
2022/10/25 08:34:07;;;;;;;26.17;18.73;;;22.10;67.90;;;;;;5076228;28;20436;-80
2022/10/25 08:36:33;;;;;;;27.23;16.42;;;22.30;67.40;;;;;;5094152;28;20103;-78
2022/10/25 08:38:59;;;;;;;27.48;17.67;;;22.30;67.70;;;;;;5093953;28;20355;-81
2022/10/25 08:41:27;;;;;;;26.38;18.42;;;22.40;67.30;;;;;;5094283;28;20032;-79
2022/10/25 08:44:14;;;;;;;23.85;16.10;;;22.40;67.30;;;;;;5075587;28;20038;-79
2022/10/25 08:46:58;;;;;;;28.00;18.23;;;22.20;67.50;;;;;;5094398;28;20446;-81
2022/10/25 08:49:45;;;;;;;28.13;18.52;;;21.90;67.90;;;;;;5094313;28;20019;-80
2022/10/25 08:53:07;;;;;;;26.27;16.45;;;22.20;67.70;;;;;;5094330;28;20059;-79
2022/10/25 08:55:35;;;;;;;22.98;15.55;;;22.00;67.70;;;;;;5038640;28;20041;-78
2022/10/25 08:58:13;;;;;;;23.20;16.40;;;21.60;69.80;;;;;;5051489;28;20025;-77
2022/10/25 09:00:41;;;;;;;25.15;16.92;;;21.50;69.10;;;;;;5051893;28;20033;-89
2022/10/25 09:03:17;;;;;;;22.35;15.90;;;21.70;69.20;;;;;;5034730;28;20028;-80
2022/10/25 09:05:48;;;;;;;24.10;14.57;;;21.90;68.90;;;;;;5034973;28;20537;-80
2022/10/25 09:08:35;;;;;;;21.15;15.68;;;22.20;67.90;;;;;;5034794;28;20052;-79
2022/10/25 09:11:06;;;;;;;22.70;16.50;;;22.50;67.30;;;;;;5034455;28;20128;-80
2022/10/25 09:13:48;;;;;;;24.85;16.05;;;22.60;67.10;;;;;;5051312;28;20036;-78
2022/10/25 09:16:33;;;;;;;23.30;14.38;;;22.70;66.70;;;;;;5034599;28;20025;-80
2022/10/25 09:19:02;;;;;;;24.50;16.23;;;22.80;66.50;;;;;;5050840;28;20025;-85
2022/10/25 09:21:39;;;;;;;20.30;14.48;;;22.90;65.70;;;;;;5056917;28;20043;-79
2022/10/25 09:24:32;;;;;;;22.73;14.27;;;22.90;66.30;;;;;;5070947;28;20072;-79
2022/10/25 09:27:37;;;;;;;20.80;14.20;;;22.80;66.10;;;;;;5071184;28;20035;-80
2022/10/25 09:30:09;;;;;;;21.17;13.98;;;22.70;66.20;;;;;;4975416;28;20500;-79
2022/10/25 09:32:45;;;;;;;19.60;14.32;;;22.80;66.10;;;;;;5007309;28;20040;-81
2022/10/25 09:35:16;;;;;;;22.65;14.93;;;22.80;66.10;;;;;;5031095;28;20026;-79
2022/10/25 09:37:44;;;;;;;;;;;22.70;66.90;;;;;;5031782;28;20558;-80
2022/10/25 09:40:23;;;;;;;20.42;13.55;;;23.00;65.80;;;;;;5031904;28;20286;-80
2022/10/25 09:42:54;;;;;;;19.95;14.00;;;23.20;65.40;;;;;;5030850;28;20037;-78
2022/10/25 09:45:44;;;;;;;20.55;13.73;;;23.10;65.90;;;;;;5030441;28;20025;-79
2022/10/25 09:48:26;;;;;;;19.50;13.27;;;23.10;65.40;;;;;;5014337;28;20055;-79
2022/10/25 09:51:29;;;;;;;20.63;13.85;;;23.10;65.30;;;;;;5031052;28;20124;-80
2022/10/25 09:53:56;;;;;;;22.40;14.60;;;23.10;65.00;;;;;;5014047;28;20029;-79
2022/10/25 09:56:22;;;;;;;19.63;13.40;;;23.10;65.30;;;;;;5015692;28;20080;-81
2022/10/25 09:58:48;;;;;;;20.92;13.73;;;23.20;65.70;;;;;;5014385;28;20022;-78
2022/10/25 10:01:24;;;;;;;23.17;17.05;;;22.90;65.80;;;;;;5089126;28;20390;-79
2022/10/25 10:03:50;;;;;;;25.50;16.98;;;22.90;65.50;;;;;;5094950;28;20027;-79
2022/10/25 10:06:16;;;;;;;24.95;15.82;;;22.80;65.10;;;;;;5112816;28;20072;-79
2022/10/25 10:08:49;;;;;;;20.70;14.57;;;22.90;65.40;;;;;;5113413;28;20023;-77
2022/10/25 10:11:16;;;;;;;19.92;14.40;;;22.80;66.00;;;;;;5094976;28;20030;-78
2022/10/25 10:13:51;;;;;;;19.90;13.52;;;22.80;66.20;;;;;;5094876;28;20032;-79
2022/10/25 10:16:30;;;;;;;22.75;15.25;;;22.70;66.30;;;;;;5113872;28;20016;-78
2022/10/25 10:19:20;;;;;;;18.73;13.48;;;22.70;66.10;;;;;;5113142;28;20109;-79
2022/10/25 10:21:54;;;;;;;21.67;14.30;;;22.80;65.90;;;;;;5113276;28;20059;-78
2022/10/25 10:24:25;;;;;;;20.02;14.80;;;22.70;66.00;;;;;;5116410;28;20039;-79
2022/10/25 10:26:57;;;;;;;19.23;13.50;;;22.90;65.50;;;;;;5098959;28;20099;-79
2022/10/25 10:29:24;;;;;;;19.92;13.80;;;23.00;65.10;;;;;;5099052;28;20119;-78
2022/10/25 10:31:55;;;;;;;20.40;13.82;;;22.90;65.50;;;;;;5116773;28;20094;-80
2022/10/25 10:34:31;;;;;;;;;;;22.80;65.00;;;;;;5117613;28;20061;-79
2022/10/25 10:37:04;;;;;;;19.38;13.48;;;22.70;65.80;;;;;;5098824;28;19900;-84
2022/10/25 10:39:30;;;;;;;21.10;12.15;;;22.70;65.70;;;;;;5099031;28;20026;-80
2022/10/25 10:42:12;;;;;;;18.20;13.02;;;22.70;65.80;;;;;;5115829;28;20031;-79
2022/10/25 10:44:38;;;;;;;18.70;12.90;;;22.70;65.70;;;;;;5115727;28;20084;-83
2022/10/25 10:47:11;;;;;;;15.93;11.50;;;22.50;66.50;;;;;;5117309;28;20015;-80
2022/10/25 10:49:40;;;;;;;18.40;12.50;;;22.20;67.10;;;;;;5098613;28;20454;-80
2022/10/25 10:52:50;;;;;;;16.08;11.70;;;22.00;67.00;;;;;;5099076;28;20106;-80
2022/10/25 10:55:25;;;;;;;19.17;11.67;;;22.00;67.50;;;;;;5034266;28;20544;-83
2022/10/25 10:57:53;;;;;;;18.23;11.57;;;21.90;68.00;;;;;;5017672;28;20271;-81
2022/10/25 11:00:25;;;;;;;22.67;13.27;;;22.00;68.40;;;;;;5034515;28;20091;-85
2022/10/25 11:02:51;;;;;;;17.30;12.18;;;22.20;68.10;;;;;;5034530;28;20029;-82
2022/10/25 11:05:19;;;;;;;18.15;13.38;;;22.20;67.20;;;;;;5016985;28;20026;-81
2022/10/25 11:07:56;;;;;;;16.27;11.85;;;22.10;68.20;;;;;;5017473;28;20082;-82
2022/10/25 11:10:33;;;;;;;16.42;12.38;;;22.30;67.30;;;;;;5033986;28;20064;-83
2022/10/25 11:13:17;;;;;;;17.42;12.52;;;22.60;67.00;;;;;;5017390;28;20441;-82
2022/10/25 11:16:28;;;;;;;16.30;11.88;;;22.70;66.50;;;;;;5034115;28;20021;-83
2022/10/25 11:19:13;;;;;;;16.48;11.88;;;22.80;66.10;;;;;;4975108;28;20074;-79
2022/10/25 11:22:11;;;;;;;14.50;11.48;;;22.80;66.50;;;;;;4974658;28;20125;-83
2022/10/25 11:25:02;;;;;;;15.75;11.98;;;22.90;66.40;;;;;;4936383;29;20391;-86
2022/10/25 11:27:39;;;;;;;15.13;10.77;;;23.10;66.10;;;;;;4936724;29;20086;-80
2022/10/25 11:30:21;;;;;;;15.43;9.82;;;23.10;65.60;;;;;;4946834;28;20106;-78
2022/10/25 11:33:05;;;;;;;13.68;10.00;;;23.10;66.50;;;;;;4994192;28;20030;-80
2022/10/25 11:35:34;;;;;;;16.15;10.43;;;23.20;65.90;;;;;;4976515;28;20088;-88
2022/10/25 11:38:41;;;;;;;14.02;9.98;;;23.40;65.80;;;;;;4994044;28;20026;-81
2022/10/25 11:41:27;;;;;;;16.27;9.55;;;23.70;65.80;;;;;;4993907;28;20031;-79
2022/10/25 11:44:17;;;;;;;12.27;9.45;;;23.80;65.50;;;;;;4977623;28;20034;-79
2022/10/25 11:47:10;;;;;;;15.80;9.45;;;23.80;65.10;;;;;;4977909;28;20026;-85
2022/10/25 11:50:07;;;;;;;17.90;12.98;;;23.50;66.00;;;;;;4994294;28;20418;-85
2022/10/25 11:52:39;;;;;;;13.82;10.27;;;23.30;66.00;;;;;;4998623;28;20379;-80
2022/10/25 11:55:42;;;;;;;12.77;9.45;;;23.40;66.10;;;;;;5052987;28;20447;-79
2022/10/25 11:58:43;;;;;;;12.80;8.85;;;23.70;66.00;;;;;;5049779;28;20029;-79
2022/10/25 12:01:31;;;;;;;20.55;15.88;;;23.60;65.40;;;;;;5029135;28;20514;-79
2022/10/25 12:04:18;;;;;;;10.63;8.20;;;23.60;66.20;;;;;;5053128;28;20055;-86
2022/10/25 12:07:03;;;;;;;10.82;8.13;;;23.40;65.10;;;;;;5053065;28;20071;-85
2022/10/25 12:09:31;;;;;;;10.00;7.50;;;23.20;65.60;;;;;;5052999;28;20100;-79
2022/10/25 12:12:11;;;;;;;10.35;8.02;;;23.20;65.70;;;;;;5036897;28;20024;-88
2022/10/25 12:14:45;;;;;;;9.70;6.80;;;23.20;65.90;;;;;;5053671;28;20025;-85
2022/10/25 12:17:27;;;;;;;10.73;6.22;;;23.30;65.10;;;;;;5053157;28;20068;-79
2022/10/25 12:19:56;;;;;;;9.00;6.10;;;23.30;65.10;;;;;;5036518;28;20383;-87
2022/10/25 12:22:44;;;;;;;9.82;6.28;;;23.30;65.00;;;;;;5035343;28;20073;-86
2022/10/25 12:25:24;;;;;;;8.80;6.35;;;23.10;64.60;;;;;;5052523;28;20476;-80
2022/10/25 12:28:05;;;;;;;8.67;6.40;;;23.20;64.80;;;;;;5036281;28;20049;-86
2022/10/25 12:30:33;;;;;;;8.02;5.78;;;23.30;64.30;;;;;;5035886;28;20351;-84
2022/10/25 12:33:11;;;;;;;9.02;5.97;;;23.40;64.70;;;;;;5035917;28;20063;-81
2022/10/25 12:35:45;;;;;;;7.45;5.65;;;23.70;63.60;;;;;;5052797;28;20021;-79
2022/10/25 12:38:36;;;;;;;10.65;5.10;;;23.80;63.50;;;;;;5065595;28;20038;-87
2022/10/25 12:41:31;;;;;;;10.10;4.70;;;23.60;62.00;;;;;;5096520;28;20015;-88
2022/10/25 12:44:26;;;;;;;5.72;4.10;;;23.50;63.10;;;;;;5096834;28;20027;-80
2022/10/25 12:47:20;;;;;;;7.93;4.30;;;23.50;63.20;;;;;;5095940;28;20060;-81
2022/10/25 12:49:58;;;;;;;7.05;3.90;;;23.90;62.60;;;;;;5114826;28;20103;-82
2022/10/25 12:52:37;;;;;;;6.70;4.05;;;24.20;61.70;;;;;;5096392;28;20535;-84
2022/10/25 12:55:27;;;;;;;7.97;5.15;;;24.50;61.20;;;;;;5113693;28;20063;-81